Terminal Aerodrome Forecast
Issued by NWS Bismarck, ND

Home | Current Version | Previous Version | Graphics & Text | Print | Product List | Glossary On
Versions: 1 2 3 4 5 6 7 8 9 10 11 12 13 14 15 16 17 18 19 20 21 22
072
FTUS43 KBIS 061120
TAFISN
TAF
KISN 061120Z 0612/0712 31018G28KT 3SM BLSN VCSH OVC035
     FM061500 30015KT 3SM BLSN OVC035
     FM062200 31015KT 4SM BLSN OVC030
     FM070300 31013KT P6SM OVC040
     FM070900 30013KT P6SM OVC015=

USA.gov is the U.S. government's official web portal to all federal, state and local government web resources and services.